Time;durP1;ratioP1;P1;durP2;ratioP2;P2;SDS_P1;SDS_P2;PMS_P1;PMS_P2;Temp;Humidity;BMP_temperature;BMP_pressure;BME280_temperature;BME280_humidity;BME280_pressure;Samples;Min_cycle;Max_cycle;Signal;HPM_P1;HPM_P2
2024/02/05 00:01:55;;;;;;;;;;;;;;;-144.99;100.00;52513.31;5042752;28;20257;-72
2024/02/05 00:04:22;;;;;;;;;;;;;;;-144.99;100.00;52539.81;5052197;28;19928;-73
2024/02/05 00:06:48;;;;;;;;;;;;;;;-144.99;100.00;52505.16;5048694;28;19932;-73
2024/02/05 00:09:16;;;;;;;;;;;;;;;-144.99;100.00;52488.84;5043370;28;20019;-72
2024/02/05 00:11:45;;;;;;;;;;;;;;;-144.99;100.00;52513.31;5050626;28;19929;-76
2024/02/05 00:14:12;;;;;;;;;;;;;;;-144.99;100.00;52513.31;5048949;28;19979;-70
2024/02/05 00:16:39;;;;;;;;;;;;;;;-144.99;100.00;52539.81;5044160;28;19937;-69
2024/02/05 00:19:05;;;;;;;;;;;;;;;-144.99;100.00;52513.31;5044497;28;20072;-70
2024/02/05 00:21:32;;;;;;;;;;;;;;;-144.99;100.00;52505.16;5051204;28;19968;-70
2024/02/05 00:23:58;;;;;;;;;;;;;;;-144.99;100.00;52545.94;4694121;28;10000048;-70
2024/02/05 00:26:26;;;;;;;;;;;;;;;-144.99;100.00;52525.56;5047499;28;20378;-70
2024/02/05 00:28:52;;;;;;;;;;;;;;;-144.99;100.00;52501.09;5044384;28;19978;-70
2024/02/05 00:31:19;;;;;;;;;;;;;;;-144.99;100.00;52525.56;5051290;28;20310;-70
2024/02/05 00:33:47;;;;;;;;;;;;;;;-144.99;100.00;52468.47;5045114;28;20347;-72
2024/02/05 00:36:13;;;;;;;;;;;;;;;-144.99;100.00;52476.63;5054897;28;20021;-69
2024/02/05 00:38:40;;;;;;;;;;;;;;;-144.99;100.00;52521.47;5051244;28;19971;-71
2024/02/05 00:41:08;;;;;;;;;;;;;;;-144.99;100.00;52501.09;5047656;28;20197;-73
2024/02/05 00:43:36;;;;;;;;;;;;;;;-144.99;100.00;52513.31;5049100;28;20457;-73
2024/02/05 00:46:03;;;;;;;;;;;;;;;-144.99;100.00;52476.63;5050459;28;20057;-69
2024/02/05 00:48:29;;;;;;;;;;;;;;;-144.99;100.00;52505.16;5048088;28;20016;-69
2024/02/05 00:50:56;;;;;;;;;;;;;;;-144.99;100.00;52517.41;5047968;28;19925;-69
2024/02/05 00:53:22;;;;;;;;;;;;;;;-144.99;100.00;52497.00;5051790;28;19982;-70
2024/02/05 00:55:49;;;;;;;;;;;;;;;-144.99;100.00;52497.00;5049021;28;20004;-74
2024/02/05 00:58:15;;;;;;;;;;;;;;;-144.99;100.00;52513.31;5047910;28;20022;-71
2024/02/05 01:00:43;;;;;;;;;;;;;;;-144.99;100.00;52519.44;5047942;28;19960;-71
2024/02/05 01:03:11;;;;;;;;;;;;;;;-144.99;100.00;52509.25;5050035;28;20436;-71
2024/02/05 01:05:38;;;;;;;;;;;;;;;-144.99;100.00;52509.25;5047271;28;20047;-71
2024/02/05 01:08:05;;;;;;;;;;;;;;;-144.99;100.00;52505.16;5047261;28;20029;-71
2024/02/05 01:10:32;;;;;;;;;;;;;;;-144.99;100.00;52541.84;5048606;28;20324;-71
2024/02/05 01:12:59;;;;;;;;;;;;;;;-144.99;100.00;52484.78;5047811;28;20395;-71
2024/02/05 01:15:25;;;;;;;;;;;;;;;-144.99;100.00;52517.41;5046150;28;20011;-71
2024/02/05 01:17:53;;;;;;;;;;;;;;;-144.99;100.00;52533.69;5045304;28;20008;-70
2024/02/05 01:20:19;;;;;;;;;;;;;;;-144.99;100.00;52511.28;5050036;28;19974;-69
2024/02/05 01:22:47;;;;;;;;;;;;;;;-144.99;100.00;52509.25;5047991;28;20023;-69
2024/02/05 01:25:13;;;;;;;;;;;;;;;-144.99;100.00;52497.00;5049537;28;19936;-69
2024/02/05 01:27:40;;;;;;;;;;;;;;;-144.99;100.00;52509.25;5055381;28;20339;-68
2024/02/05 01:30:08;;;;;;;;;;;;;;;-144.99;100.00;52476.63;5044291;28;19972;-70
2024/02/05 01:32:34;;;;;;;;;;;;;;;-144.99;100.00;52554.09;5046198;28;19932;-71
2024/02/05 01:35:03;;;;;;;;;;;;;;;-144.99;100.00;52517.41;5048587;28;19925;-68
2024/02/05 01:37:29;;;;;;;;;;;;;;;-144.99;100.00;52525.56;5053675;28;19932;-69
2024/02/05 01:39:55;;;;;;;;;;;;;;;-144.99;100.00;52521.47;5045955;28;20091;-69
2024/02/05 01:42:23;;;;;;;;;;;;;;;-144.99;100.00;52529.63;5051494;28;20008;-68
2024/02/05 01:44:50;;;;;;;;;;;;;;;-144.99;100.00;52515.34;5047147;28;20404;-67
2024/02/05 01:47:16;;;;;;;;;;;;;;;-144.99;100.00;52519.44;5051796;28;19925;-67
2024/02/05 01:49:45;;;;;;;;;;;;;;;-144.99;100.00;52501.09;5042211;28;19925;-68
2024/02/05 01:52:17;;;;;;;;;;;;;;;-144.99;100.00;52527.59;5052677;28;19981;-68
2024/02/05 01:54:44;;;;;;;;;;;;;;;-144.99;100.00;52517.41;5051205;28;19979;-69
2024/02/05 01:57:11;;;;;;;;;;;;;;;-144.99;100.00;52509.25;5047022;28;19944;-71
2024/02/05 01:59:38;;;;;;;;;;;;;;;-144.99;100.00;52509.25;5044394;28;19944;-69
2024/02/05 02:02:05;;;;;;;;;;;;;;;-144.99;100.00;52570.38;5043970;28;20414;-71
2024/02/05 02:04:32;;;;;;;;;;;;;;;-144.99;100.00;52517.41;5046987;28;19925;-69
2024/02/05 02:06:59;;;;;;;;;;;;;;;-144.99;100.00;52509.25;5042112;28;20336;-70
2024/02/05 02:09:27;;;;;;;;;;;;;;;-144.99;100.00;52525.56;5047336;28;19967;-70
2024/02/05 02:11:53;;;;;;;;;;;;;;;-144.99;100.00;52523.50;5046335;28;19932;-70
2024/02/05 02:14:20;;;;;;;;;;;;;;;-144.99;100.00;52513.31;5046927;28;20344;-68
2024/02/05 02:16:46;;;;;;;;;;;;;;;-144.99;100.00;52525.56;5048849;28;20328;-69
2024/02/05 02:19:18;;;;;;;;;;;;;;;-144.99;100.00;52509.25;5049766;28;19987;-69
2024/02/05 02:21:46;;;;;;;;;;;;;;;-144.99;100.00;52525.56;5053829;28;19944;-69
2024/02/05 02:24:14;;;;;;;;;;;;;;;-144.99;100.00;52545.94;5047622;28;19925;-69
2024/02/05 02:26:40;;;;;;;;;;;;;;;-144.99;100.00;52476.63;5049936;28;19952;-70
2024/02/05 02:29:07;;;;;;;;;;;;;;;-144.99;100.00;52537.78;5051441;28;19979;-71
2024/02/05 02:31:34;;;;;;;;;;;;;;;-144.99;100.00;52519.44;5053617;28;20003;-70
2024/02/05 02:34:06;;;;;;;;;;;;;;;-144.99;100.00;52552.03;5047044;28;20452;-69
2024/02/05 02:36:36;;;;;;;;;;;;;;;-144.99;100.00;52484.78;5052878;28;19969;-69
2024/02/05 02:39:05;;;;;;;;;;;;;;;-144.99;100.00;52541.84;5050331;28;19987;-69
2024/02/05 02:41:36;;;;;;;;;;;;;;;-144.99;100.00;52550.00;5052823;28;20008;-67
2024/02/05 02:44:03;;;;;;;;;;;;;;;-144.99;100.00;52533.69;5049009;28;19925;-67
2024/02/05 02:46:30;;;;;;;;;;;;;;;-144.99;100.00;52531.66;5046582;28;20007;-68
2024/02/05 02:48:57;;;;;;;;;;;;;;;-144.99;100.00;52501.09;5058564;28;19978;-69
2024/02/05 02:51:23;;;;;;;;;;;;;;;-144.99;100.00;52492.94;5045583;28;20259;-67
2024/02/05 02:53:50;;;;;;;;;;;;;;;-144.99;100.00;52517.41;5048245;28;19925;-70
2024/02/05 02:56:17;;;;;;;;;;;;;;;-144.99;100.00;52533.69;5056111;28;20015;-69
2024/02/05 02:58:44;;;;;;;;;;;;;;;-144.99;100.00;52525.56;5045868;28;20362;-67
2024/02/05 03:01:11;;;;;;;;;;;;;;;-144.99;100.00;52515.34;5046819;28;20026;-67
2024/02/05 03:03:38;;;;;;;;;;;;;;;-144.99;100.00;52554.09;5050782;28;20339;-67
2024/02/05 03:06:04;;;;;;;;;;;;;;;-144.99;100.00;52497.00;5047104;28;20034;-66
2024/02/05 03:08:31;;;;;;;;;;;;;;;-144.99;100.00;52529.63;5049743;28;20023;-65
2024/02/05 03:10:57;;;;;;;;;;;;;;;-144.99;100.00;52541.84;5029082;28;20105;-66
2024/02/05 03:13:24;;;;;;;;;;;;;;;-144.99;100.00;52501.09;5046748;28;19948;-64
2024/02/05 03:15:52;;;;;;;;;;;;;;;-144.99;100.00;52517.41;5046953;28;19983;-65
2024/02/05 03:18:19;;;;;;;;;;;;;;;-144.99;100.00;52521.47;5053436;28;19967;-72
2024/02/05 03:20:46;;;;;;;;;;;;;;;-144.99;100.00;52537.78;5053825;28;20316;-72
2024/02/05 03:23:12;;;;;;;;;;;;;;;-144.99;100.00;52521.47;5049796;28;20024;-72
2024/02/05 03:25:39;;;;;;;;;;;;;;;-144.99;100.00;52509.25;5053465;28;19976;-73
2024/02/05 03:28:07;;;;;;;;;;;;;;;-144.99;100.00;52533.69;5046887;28;20386;-72
2024/02/05 03:30:34;;;;;;;;;;;;;;;-144.99;100.00;52517.41;5046665;28;19936;-72
2024/02/05 03:33:02;;;;;;;;;;;;;;;-144.99;100.00;52527.59;5051674;28;19978;-71
2024/02/05 03:35:29;;;;;;;;;;;;;;;-144.99;100.00;52509.25;5046749;28;20010;-72
2024/02/05 03:37:56;;;;;;;;;;;;;;;-144.99;100.00;52527.59;5048606;28;20397;-72
2024/02/05 03:40:23;;;;;;;;;;;;;;;-144.99;100.00;52529.63;5049357;28;20023;-75
2024/02/05 03:42:50;;;;;;;;;;;;;;;-144.99;100.00;52529.63;5050825;28;19925;-72
2024/02/05 03:45:17;;;;;;;;;;;;;;;-144.99;100.00;52521.47;5045499;28;20376;-72
2024/02/05 03:47:43;;;;;;;;;;;;;;;-144.99;100.00;52521.47;5045379;28;20027;-74
2024/02/05 03:50:11;;;;;;;;;;;;;;;-144.99;100.00;52541.84;5047078;28;20270;-73
2024/02/05 03:52:39;;;;;;;;;;;;;;;-144.99;100.00;52537.78;5050905;28;20037;-72
2024/02/05 03:55:06;;;;;;;;;;;;;;;-144.99;100.00;52533.69;5052775;28;19928;-71
2024/02/05 03:57:33;;;;;;;;;;;;;;;-144.99;100.00;52468.47;5050715;28;19964;-71
2024/02/05 04:00:01;;;;;;;;;;;;;;;-144.99;100.00;52513.31;5047240;28;20043;-73
2024/02/05 04:02:28;;;;;;;;;;;;;;;-144.99;100.00;52529.63;5049106;28;19924;-71
2024/02/05 04:04:57;;;;;;;;;;;;;;;-144.99;100.00;52558.16;5047312;28;19936;-72
2024/02/05 04:07:25;;;;;;;;;;;;;;;-144.99;100.00;52509.25;5047167;28;20014;-71
2024/02/05 04:09:51;;;;;;;;;;;;;;;-144.99;100.00;52523.50;5053537;28;19978;-71
2024/02/05 04:12:18;;;;;;;;;;;;;;;-144.99;100.00;52503.13;5054791;28;19939;-72
2024/02/05 04:14:45;;;;;;;;;;;;;;;-144.99;100.00;52527.59;5048111;28;19929;-75
2024/02/05 04:17:12;;;;;;;;;;;;;;;-144.99;100.00;52509.25;5047637;28;19947;-77
2024/02/05 04:19:43;;;;;;;;;;;;;;;-144.99;100.00;52566.31;5054891;28;20019;-78
2024/02/05 04:22:09;;;;;;;;;;;;;;;-144.99;100.00;52529.63;5047783;28;20391;-78
2024/02/05 04:24:37;;;;;;;;;;;;;;;-144.99;100.00;52505.16;5048269;28;20454;-78
2024/02/05 04:27:04;;;;;;;;;;;;;;;-144.99;100.00;52470.50;5044800;28;19961;-79
2024/02/05 04:29:30;;;;;;;;;;;;;;;-144.99;100.00;52566.31;5050765;28;20013;-78
2024/02/05 04:31:57;;;;;;;;;;;;;;;-144.99;100.00;52558.16;5046769;28;19925;-80
2024/02/05 04:34:24;;;;;;;;;;;;;;;-144.99;100.00;52513.31;5050239;28;20224;-80
2024/02/05 04:36:52;;;;;;;;;;;;;;;-144.99;100.00;52545.94;5048118;28;19924;-80
2024/02/05 04:39:19;;;;;;;;;;;;;;;-144.99;100.00;52550.00;5054966;28;20481;-82
2024/02/05 04:41:47;;;;;;;;;;;;;;;-144.99;100.00;52525.56;5047886;28;19928;-78
2024/02/05 04:44:14;;;;;;;;;;;;;;;-144.99;100.00;52554.09;5057539;28;20306;-78
2024/02/05 04:46:40;;;;;;;;;;;;;;;-144.99;100.00;52533.69;5046790;28;19982;-78
2024/02/05 04:49:07;;;;;;;;;;;;;;;-144.99;100.00;52537.78;5044097;28;20016;-76
2024/02/05 04:51:34;;;;;;;;;;;;;;;-144.99;100.00;52521.47;5044470;28;19936;-76
2024/02/05 04:54:00;;;;;;;;;;;;;;;-144.99;100.00;52529.63;5045496;28;19931;-75
2024/02/05 04:56:26;;;;;;;;;;;;;;;-144.99;100.00;52525.56;5047879;28;20020;-76
2024/02/05 04:58:54;;;;;;;;;;;;;;;-144.99;100.00;52523.50;5046770;28;20105;-76
2024/02/05 05:01:21;;;;;;;;;;;;;;;-144.99;100.00;52550.00;5042809;28;19986;-68
2024/02/05 05:03:47;;;;;;;;;;;;;;;-144.99;100.00;52492.94;5048308;28;19940;-70
2024/02/05 05:06:14;;;;;;;;;;;;;;;-144.99;100.00;52560.19;5044505;28;20043;-72
2024/02/05 05:08:42;;;;;;;;;;;;;;;-144.99;100.00;52531.66;5045277;28;21924;-70
2024/02/05 05:11:09;;;;;;;;;;;;;;;-144.99;100.00;52521.47;5051877;28;19928;-70
2024/02/05 05:13:35;;;;;;;;;;;;;;;-144.99;100.00;52490.91;5053170;28;19924;-71
2024/02/05 05:16:03;;;;;;;;;;;;;;;-144.99;100.00;52494.97;5044256;28;20012;-69
2024/02/05 05:18:30;;;;;;;;;;;;;;;-144.99;100.00;52521.47;5044523;28;19931;-70
2024/02/05 05:20:56;;;;;;;;;;;;;;;-144.99;100.00;52525.56;5050095;28;19937;-66
2024/02/05 05:23:23;;;;;;;;;;;;;;;-144.99;100.00;52537.78;5044947;28;20031;-67
2024/02/05 05:25:49;;;;;;;;;;;;;;;-144.99;100.00;52541.84;5051026;28;20303;-64
2024/02/05 05:28:16;;;;;;;;;;;;;;;-144.99;100.00;52537.78;5042718;28;19925;-70
2024/02/05 05:30:42;;;;;;;;;;;;;;;-144.99;100.00;52531.66;5047653;28;19990;-71
2024/02/05 05:33:10;;;;;;;;;;;;;;;-144.99;100.00;52554.09;5045998;28;20039;-70
2024/02/05 05:35:36;;;;;;;;;;;;;;;-144.99;100.00;52513.31;5044397;28;20351;-70
2024/02/05 05:38:03;;;;;;;;;;;;;;;-144.99;100.00;52521.47;5045862;28;20029;-70
2024/02/05 05:40:29;;;;;;;;;;;;;;;-144.99;100.00;52507.19;5042954;28;19932;-70
2024/02/05 05:42:56;;;;;;;;;;;;;;;-144.99;100.00;52527.59;5039210;28;20027;-70
2024/02/05 05:45:22;;;;;;;;;;;;;;;-144.99;100.00;52529.63;5044093;28;19947;-71
2024/02/05 05:47:49;;;;;;;;;;;;;;;-144.99;100.00;52513.31;5027920;28;20355;-70
2024/02/05 05:50:17;;;;;;;;;;;;;;;-144.99;100.00;52525.56;5042064;28;20069;-70
2024/02/05 05:52:43;;;;;;;;;;;;;;;-144.99;100.00;52529.63;5050371;28;19952;-70
2024/02/05 05:55:10;;;;;;;;;;;;;;;-144.99;100.00;52525.56;5046913;28;19959;-72
2024/02/05 05:57:37;;;;;;;;;;;;;;;-144.99;100.00;52570.38;5049708;28;20019;-72
2024/02/05 06:00:05;;;;;;;;;;;;;;;-144.99;100.00;52550.00;5047579;28;19956;-73
2024/02/05 06:02:31;;;;;;;;;;;;;;;-144.99;100.00;52541.84;5056240;28;19931;-74
2024/02/05 06:04:58;;;;;;;;;;;;;;;-144.99;100.00;52543.91;5048473;28;19929;-72
2024/02/05 06:07:26;;;;;;;;;;;;;;;-144.99;100.00;52509.25;5051200;28;19990;-71
2024/02/05 06:09:53;;;;;;;;;;;;;;;-144.99;100.00;52541.84;5036863;28;19974;-72
2024/02/05 06:12:19;;;;;;;;;;;;;;;-144.99;100.00;52525.56;5049017;28;19929;-72
2024/02/05 06:14:46;;;;;;;;;;;;;;;-144.99;100.00;52552.03;5047297;28;20257;-72
2024/02/05 06:17:13;;;;;;;;;;;;;;;-144.99;100.00;52517.41;4370126;28;10000833;-72
2024/02/05 06:19:39;;;;;;;;;;;;;;;-144.99;100.00;52505.16;5031561;28;19929;-71
2024/02/05 06:22:06;;;;;;;;;;;;;;;-144.99;100.00;52570.38;5048156;28;20023;-71
2024/02/05 06:24:34;;;;;;;;;;;;;;;-144.99;100.00;52501.09;5045012;28;19987;-72
2024/02/05 06:27:05;;;;;;;;;;;;;;;-144.99;100.00;52527.59;5043042;28;19944;-72
2024/02/05 06:29:31;;;;;;;;;;;;;;;-144.99;100.00;52529.63;5049983;28;19939;-72
2024/02/05 06:31:58;;;;;;;;;;;;;;;-144.99;100.00;52521.47;5043459;28;19933;-71
2024/02/05 06:34:25;;;;;;;;;;;;;;;-144.99;100.00;52523.50;5044138;28;19936;-72
2024/02/05 06:36:51;;;;;;;;;;;;;;;-144.99;100.00;52517.41;5044616;28;19925;-70
2024/02/05 06:39:18;;;;;;;;;;;;;;;-144.99;100.00;52537.78;5052477;28;19947;-72
2024/02/05 06:41:46;;;;;;;;;;;;;;;-144.99;100.00;52511.28;5046154;28;20435;-71
2024/02/05 06:44:12;;;;;;;;;;;;;;;-144.99;100.00;52533.69;5047508;28;20027;-71
2024/02/05 06:46:38;;;;;;;;;;;;;;;-144.99;100.00;52554.09;5047224;28;19968;-71
2024/02/05 06:49:05;;;;;;;;;;;;;;;-144.99;100.00;52515.34;5051324;28;20439;-70
2024/02/05 06:51:31;;;;;;;;;;;;;;;-144.99;100.00;52521.47;5049424;28;20454;-70
2024/02/05 06:53:58;;;;;;;;;;;;;;;-144.99;100.00;52505.16;5042698;28;19958;-70
2024/02/05 06:56:24;;;;;;;;;;;;;;;-144.99;100.00;52541.84;5043526;28;20066;-70
2024/02/05 06:58:52;;;;;;;;;;;;;;;-144.99;100.00;52554.09;5048413;28;20111;-71
2024/02/05 07:01:19;;;;;;;;;;;;;;;-144.99;100.00;52545.94;5051464;28;20405;-71
2024/02/05 07:03:45;;;;;;;;;;;;;;;-144.99;100.00;52509.25;5045107;28;19924;-71
2024/02/05 07:06:12;;;;;;;;;;;;;;;-144.99;100.00;52517.41;5042541;28;20010;-72
2024/02/05 07:08:38;;;;;;;;;;;;;;;-144.99;100.00;52513.31;5028504;28;19939;-71
2024/02/05 07:11:05;;;;;;;;;;;;;;;-144.99;100.00;52570.38;5046604;28;20018;-72
2024/02/05 07:13:32;;;;;;;;;;;;;;;-144.99;100.00;52543.91;5046908;28;19978;-72
2024/02/05 07:16:00;;;;;;;;;;;;;;;-144.99;100.00;52558.16;5043424;28;20402;-72
2024/02/05 07:18:26;;;;;;;;;;;;;;;-144.99;100.00;52517.41;5049721;28;19928;-72
2024/02/05 07:20:53;;;;;;;;;;;;;;;-144.99;100.00;52517.41;5049551;28;20019;-72
2024/02/05 07:23:19;;;;;;;;;;;;;;;-144.99;100.00;52537.78;5049646;28;19944;-72
2024/02/05 07:25:46;;;;;;;;;;;;;;;-144.99;100.00;52531.66;5041739;28;20342;-72
2024/02/05 07:28:13;;;;;;;;;;;;;;;-144.99;100.00;52525.56;5045277;28;20020;-72
2024/02/05 07:30:39;;;;;;;;;;;;;;;-144.99;100.00;52525.56;5046164;28;19928;-73
2024/02/05 07:33:07;;;;;;;;;;;;;;;-144.99;100.00;52521.47;5041600;28;19960;-72
2024/02/05 07:35:33;;;;;;;;;;;;;;;-144.99;100.00;52529.63;5041929;28;19961;-73
2024/02/05 07:38:00;;;;;;;;;;;;;;;-144.99;100.00;52533.69;5043484;28;20431;-73
2024/02/05 07:40:27;;;;;;;;;;;;;;;-144.99;100.00;52509.25;5049096;28;20086;-72
2024/02/05 07:42:54;;;;;;;;;;;;;;;-144.99;100.00;52533.69;5048739;28;20023;-72
2024/02/05 07:45:20;;;;;;;;;;;;;;;-144.99;100.00;52558.16;5043043;28;19929;-73
2024/02/05 07:47:47;;;;;;;;;;;;;;;-144.99;100.00;52537.78;5044832;28;19940;-72
2024/02/05 07:50:15;;;;;;;;;;;;;;;-144.99;100.00;52574.47;5045992;28;19960;-74
2024/02/05 07:52:41;;;;;;;;;;;;;;;-144.99;100.00;52537.78;5043009;28;20001;-73
2024/02/05 07:55:08;;;;;;;;;;;;;;;-144.99;100.00;52574.47;5040453;28;19924;-73
2024/02/05 07:57:35;;;;;;;;;;;;;;;-144.99;100.00;52570.38;5047257;28;19963;-72
2024/02/05 08:00:01;;;;;;;;;;;;;;;-144.99;100.00;52513.31;5044613;28;19964;-72
2024/02/05 08:02:28;;;;;;;;;;;;;;;-144.99;100.00;52537.78;5058465;28;20286;-73
2024/02/05 08:04:54;;;;;;;;;;;;;;;-144.99;100.00;52550.00;5048952;28;19929;-72
2024/02/05 08:07:24;;;;;;;;;;;;;;;-144.99;100.00;52486.81;5048253;28;19952;-73
2024/02/05 08:09:51;;;;;;;;;;;;;;;-144.99;100.00;52521.47;5045714;28;19954;-73
2024/02/05 08:12:18;;;;;;;;;;;;;;;-144.99;100.00;52509.25;5044998;28;20127;-73
2024/02/05 08:14:44;;;;;;;;;;;;;;;-144.99;100.00;52547.97;5051196;28;19936;-74
2024/02/05 08:17:11;;;;;;;;;;;;;;;-144.99;100.00;52521.47;5049730;28;19928;-73
2024/02/05 08:19:37;;;;;;;;;;;;;;;-144.99;100.00;52521.47;5053333;28;20042;-74
2024/02/05 08:22:04;;;;;;;;;;;;;;;-144.99;100.00;52570.38;5047630;28;20493;-74
2024/02/05 08:24:32;;;;;;;;;;;;;;;-144.99;100.00;52513.31;5052294;28;20025;-75
2024/02/05 08:26:58;;;;;;;;;;;;;;;-144.99;100.00;52529.63;5044671;28;19929;-74
2024/02/05 08:29:24;;;;;;;;;;;;;;;-144.99;100.00;52568.34;5046386;28;20037;-74
2024/02/05 08:31:52;;;;;;;;;;;;;;;-144.99;100.00;52517.41;5054045;28;20047;-73
2024/02/05 08:34:18;;;;;;;;;;;;;;;-144.99;100.00;52525.56;5048601;28;20124;-75
2024/02/05 08:36:45;;;;;;;;;;;;;;;-144.99;100.00;52513.31;5046892;28;20374;-74
2024/02/05 08:39:11;;;;;;;;;;;;;;;-144.99;100.00;52529.63;5047958;28;20166;-75
2024/02/05 08:41:39;;;;;;;;;;;;;;;-144.99;100.00;52488.84;5046491;28;20015;-73
2024/02/05 08:44:06;;;;;;;;;;;;;;;-144.99;100.00;52582.63;5054636;28;20386;-73
2024/02/05 08:46:33;;;;;;;;;;;;;;;-144.99;100.00;52503.13;5039962;28;19925;-74
2024/02/05 08:48:59;;;;;;;;;;;;;;;-144.99;100.00;52564.28;5043261;28;20000;-73
2024/02/05 08:51:30;;;;;;;;;;;;;;;-144.99;100.00;52517.41;5049258;28;20090;-74
2024/02/05 08:53:56;;;;;;;;;;;;;;;-144.99;100.00;52525.56;5045633;28;19939;-73
2024/02/05 08:56:23;;;;;;;;;;;;;;;-144.99;100.00;52560.19;5046239;28;20248;-74
2024/02/05 08:58:51;;;;;;;;;;;;;;;-144.99;100.00;52570.38;5043707;28;20028;-75
2024/02/05 09:01:18;;;;;;;;;;;;;;;-144.99;100.00;52539.81;5046805;28;19944;-73
2024/02/05 09:03:44;;;;;;;;;;;;;;;-144.99;100.00;52558.16;5050994;28;20426;-74
2024/02/05 09:06:11;;;;;;;;;;;;;;;-144.99;100.00;52529.63;5050858;28;19929;-73
2024/02/05 09:08:37;;;;;;;;;;;;;;;-144.99;100.00;52509.25;5043437;28;19929;-74
2024/02/05 09:11:04;;;;;;;;;;;;;;;-144.99;100.00;52562.25;5045459;28;20274;-73
2024/02/05 09:13:31;;;;;;;;;;;;;;;-144.99;100.00;52558.16;5044906;28;19929;-74
2024/02/05 09:15:59;;;;;;;;;;;;;;;-144.99;100.00;52529.63;5052112;28;19968;-74
2024/02/05 09:18:26;;;;;;;;;;;;;;;-144.99;100.00;52543.91;5044843;28;20375;-73
2024/02/05 09:20:52;;;;;;;;;;;;;;;-144.99;100.00;52537.78;5043639;28;19925;-74
2024/02/05 09:23:19;;;;;;;;;;;;;;;-144.99;100.00;52554.09;5044461;28;19928;-73
2024/02/05 09:25:46;;;;;;;;;;;;;;;-144.99;100.00;52513.31;5044714;28;19936;-74
2024/02/05 09:28:12;;;;;;;;;;;;;;;-144.99;100.00;52545.94;5050464;28;19929;-73
2024/02/05 09:30:39;;;;;;;;;;;;;;;-144.99;100.00;52497.00;5044262;28;20040;-74
2024/02/05 09:33:07;;;;;;;;;;;;;;;-144.99;100.00;52533.69;5040436;28;19928;-74
2024/02/05 09:35:35;;;;;;;;;;;;;;;-144.99;100.00;52525.56;5031567;28;19928;-73
2024/02/05 09:38:01;;;;;;;;;;;;;;;-144.99;100.00;52590.78;5045490;28;19975;-73
2024/02/05 09:40:28;;;;;;;;;;;;;;;-144.99;100.00;52541.84;5054622;28;20010;-73
2024/02/05 09:42:56;;;;;;;;;;;;;;;-144.99;100.00;52513.31;5046289;28;20223;-73
2024/02/05 09:45:26;;;;;;;;;;;;;;;-144.99;100.00;52562.25;5045272;28;19933;-74
2024/02/05 09:47:52;;;;;;;;;;;;;;;-144.99;100.00;52562.25;5048538;28;20476;-73
2024/02/05 09:50:21;;;;;;;;;;;;;;;-144.99;100.00;52537.78;5044241;28;19929;-74
2024/02/05 09:52:48;;;;;;;;;;;;;;;-144.99;100.00;52562.25;5049557;28;19979;-74
2024/02/05 09:55:15;;;;;;;;;;;;;;;-144.99;100.00;52541.84;5037929;28;19961;-74
2024/02/05 09:57:42;;;;;;;;;;;;;;;-144.99;100.00;52517.41;5042902;28;20311;-74
2024/02/05 10:00:10;;;;;;;;;;;;;;;-144.99;100.00;52547.97;5044193;28;20043;-74
2024/02/05 10:02:36;;;;;;;;;;;;;;;-144.99;100.00;52533.69;5048635;28;20383;-73
2024/02/05 10:05:04;;;;;;;;;;;;;;;-144.99;100.00;52541.84;5035915;28;19929;-74
2024/02/05 10:07:33;;;;;;;;;;;;;;;-144.99;100.00;52545.94;5040347;28;19925;-73
2024/02/05 10:10:02;;;;;;;;;;;;;;;-144.99;100.00;52545.94;5040324;28;19929;-73
2024/02/05 10:12:30;;;;;;;;;;;;;;;-144.99;100.00;52537.78;5059451;28;19929;-73
2024/02/05 10:14:57;;;;;;;;;;;;;;;-144.99;100.00;52554.09;5040819;28;19935;-73
2024/02/05 10:17:26;;;;;;;;;;;;;;;-144.99;100.00;52537.78;5043940;28;20023;-74
2024/02/05 10:19:52;;;;;;;;;;;;;;;-144.99;100.00;52570.38;5049515;28;20024;-72
2024/02/05 10:22:19;;;;;;;;;;;;;;;-144.99;100.00;52545.94;5043149;28;20002;-73
2024/02/05 10:24:47;;;;;;;;;;;;;;;-144.99;100.00;52501.09;5026560;28;20024;-74
2024/02/05 10:27:15;;;;;;;;;;;;;;;-144.99;100.00;52513.31;5054863;28;19976;-72
2024/02/05 10:29:41;;;;;;;;;;;;;;;-144.99;100.00;52529.63;5050840;28;19929;-75
2024/02/05 10:32:08;;;;;;;;;;;;;;;-144.99;100.00;52545.94;5045094;28;19964;-72
2024/02/05 10:34:35;;;;;;;;;;;;;;;-144.99;100.00;52558.16;5042908;28;19936;-74
2024/02/05 10:37:05;;;;;;;;;;;;;;;-144.99;100.00;52543.91;5047642;28;20002;-73
2024/02/05 10:39:32;;;;;;;;;;;;;;;-144.99;100.00;52541.84;5044760;28;19980;-74
2024/02/05 10:42:00;;;;;;;;;;;;;;;-144.99;100.00;52539.81;5049352;28;20039;-76
2024/02/05 10:44:26;;;;;;;;;;;;;;;-144.99;100.00;52505.16;5052340;28;19924;-73
2024/02/05 10:46:53;;;;;;;;;;;;;;;-144.99;100.00;52533.69;5047589;28;20019;-74
2024/02/05 10:49:19;;;;;;;;;;;;;;;-144.99;100.00;52558.16;5044700;28;19956;-74
2024/02/05 10:51:46;;;;;;;;;;;;;;;-144.99;100.00;52505.16;5046719;28;20002;-74
2024/02/05 10:54:13;;;;;;;;;;;;;;;-144.99;100.00;52525.56;5046469;28;20023;-72
2024/02/05 10:56:40;;;;;;;;;;;;;;;-144.99;100.00;52484.78;5047702;28;20148;-73
2024/02/05 10:59:08;;;;;;;;;;;;;;;-144.99;100.00;52568.34;5048469;28;20351;-73
2024/02/05 11:01:39;;;;;;;;;;;;;;;-144.99;100.00;52529.63;5054917;28;19971;-73
2024/02/05 11:04:08;;;;;;;;;;;;;;;-144.99;100.00;52509.25;5045283;28;19929;-74
2024/02/05 11:06:37;;;;;;;;;;;;;;;-144.99;100.00;52537.78;5052898;28;19932;-74
2024/02/05 11:09:06;;;;;;;;;;;;;;;-144.99;100.00;52558.16;5050004;28;20057;-74
2024/02/05 11:11:33;;;;;;;;;;;;;;;-144.99;100.00;52554.09;5046146;28;19960;-74
2024/02/05 11:14:04;;;;;;;;;;;;;;;-144.99;100.00;52523.50;5050008;28;19994;-73
2024/02/05 11:16:33;;;;;;;;;;;;;;;-144.99;100.00;52554.09;5054261;28;19928;-74
2024/02/05 11:19:01;;;;;;;;;;;;;;;-144.99;100.00;52550.00;5050097;28;19971;-74
2024/02/05 11:21:30;;;;;;;;;;;;;;;-144.99;100.00;52543.91;5054185;28;20442;-73
2024/02/05 11:23:58;;;;;;;;;;;;;;;-144.99;100.00;52574.47;4727283;28;10000519;-73
2024/02/05 11:26:25;;;;;;;;;;;;;;;-144.99;100.00;52529.63;5050381;28;20031;-75
2024/02/05 11:28:53;;;;;;;;;;;;;;;-144.99;100.00;52545.94;5053316;28;20299;-73
2024/02/05 11:31:25;;;;;;;;;;;;;;;-144.99;100.00;52550.00;5052133;28;19964;-74
2024/02/05 11:33:58;;;;;;;;;;;;;;;-144.99;100.00;52533.69;5041714;28;20000;-73
2024/02/05 11:36:27;;;;;;;;;;;;;;;-144.99;100.00;52537.78;5044258;28;19931;-76
2024/02/05 11:39:00;;;;;;;;;;;;;;;-144.99;100.00;52568.34;5053313;28;20019;-73
2024/02/05 11:41:27;;;;;;;;;;;;;;;-144.99;100.00;52545.94;5046546;28;20362;-73
2024/02/05 11:44:02;;;;;;;;;;;;;;;-144.99;100.00;52521.47;5052980;28;19978;-73
2024/02/05 11:46:28;;;;;;;;;;;;;;;-144.99;100.00;52517.41;5032835;28;20321;-76
2024/02/05 11:48:55;;;;;;;;;;;;;;;-144.99;100.00;52580.59;5042869;28;20295;-74
2024/02/05 11:51:23;;;;;;;;;;;;;;;-144.99;100.00;52558.16;5040668;28;19929;-72
2024/02/05 11:53:50;;;;;;;;;;;;;;;-144.99;100.00;52574.47;5045208;28;19936;-72
2024/02/05 11:56:16;;;;;;;;;;;;;;;-144.99;100.00;52501.09;5044974;28;19932;-74
2024/02/05 11:58:43;;;;;;;;;;;;;;;-144.99;100.00;52564.28;5030405;28;19941;-73
2024/02/05 12:01:09;;;;;;;;;;;;;;;-144.99;100.00;52578.53;5053125;28;20023;-73
2024/02/05 12:03:36;;;;;;;;;;;;;;;-144.99;100.00;52572.44;5053044;28;19954;-72
2024/02/05 12:06:03;;;;;;;;;;;;;;;-144.99;100.00;52578.53;5050725;28;19975;-74
2024/02/05 12:08:31;;;;;;;;;;;;;;;-144.99;100.00;52550.00;5045539;28;19929;-72
2024/02/05 12:10:57;;;;;;;;;;;;;;;-144.99;100.00;52545.94;5045804;28;20028;-72
2024/02/05 12:13:24;;;;;;;;;;;;;;;-144.99;100.00;52586.69;5045916;28;19929;-73
2024/02/05 12:15:50;;;;;;;;;;;;;;;-144.99;100.00;52584.66;5045867;28;20251;-72
2024/02/05 12:18:17;;;;;;;;;;;;;;;-144.99;100.00;52558.16;5047135;28;19929;-74